createdAt,value
2022-08-05T00:04:56.768Z,52.15
2022-08-05T00:09:59.328Z,58.04
2022-08-05T00:15:54.382Z,61.26
2022-08-05T00:20:22.829Z,61.83
2022-08-05T00:25:45.338Z,63.10
2022-08-05T00:30:47.549Z,63.33
2022-08-05T00:36:16.439Z,62.35
2022-08-05T00:41:26.616Z,61.50
2022-08-05T00:46:42.548Z,62.08
2022-08-05T00:51:50.547Z,62.91
2022-08-05T00:56:53.794Z,62.51
2022-08-05T01:01:55.529Z,63.66
2022-08-05T01:06:57.322Z,63.58
2022-08-05T01:12:09.378Z,63.67
2022-08-05T01:17:40.346Z,63.59
2022-08-05T01:23:25.732Z,63.01
2022-08-05T01:28:45.487Z,64.16
2022-08-05T01:33:55.398Z,62.69
2022-08-05T01:39:00.958Z,62.90
2022-08-05T01:44:03.991Z,63.68
2022-08-05T01:49:23.724Z,63.24
2022-08-05T01:54:32.209Z,63.73
2022-08-05T01:59:37.879Z,63.30
2022-08-05T02:04:42.735Z,64.24
2022-08-05T02:09:48.084Z,64.41
2022-08-05T02:15:19.789Z,65.44
2022-08-05T02:20:28.019Z,65.15
2022-08-05T02:25:49.246Z,63.89
2022-08-05T02:30:58.358Z,63.89
2022-08-05T02:36:02.417Z,64.18
2022-08-05T02:41:14.679Z,64.22
2022-08-05T02:46:27.447Z,64.56
2022-08-05T02:52:03.026Z,64.10
2022-08-05T02:56:52.732Z,64.18
2022-08-05T03:02:00.699Z,63.74
2022-08-05T03:07:02.886Z,63.52
2022-08-05T03:12:05.723Z,63.83
2022-08-05T03:17:09.114Z,63.50
2022-08-05T03:22:15.960Z,64.12
2022-08-05T03:27:20.667Z,63.65
2022-08-05T03:32:30.881Z,63.44
2022-08-05T03:37:45.806Z,62.88
2022-08-05T03:42:51.660Z,62.92
2022-08-05T03:47:57.146Z,63.53
2022-08-05T03:55:53.869Z,63.61
2022-08-05T03:58:38.015Z,63.63
2022-08-05T04:04:05.471Z,62.97
2022-08-05T04:09:10.226Z,63.31
2022-08-05T04:14:18.081Z,63.34
2022-08-05T04:19:20.643Z,62.66
2022-08-05T04:24:25.224Z,63.37
2022-08-05T04:29:29.415Z,64.16
2022-08-05T04:34:35.159Z,65.07
2022-08-05T04:39:39.220Z,65.15
2022-08-05T04:44:41.994Z,64.91
2022-08-05T04:50:02.025Z,65.47
2022-08-05T04:55:13.968Z,66.57
2022-08-05T05:00:17.248Z,67.35
2022-08-05T05:05:28.734Z,66.47
2022-08-05T05:10:33.331Z,66.53
2022-08-05T05:15:57.848Z,67.13
2022-08-05T05:20:57.405Z,67.47
2022-08-05T05:26:00.449Z,67.48
2022-08-05T05:31:02.453Z,67.75
2022-08-05T05:36:07.831Z,66.96
2022-08-05T05:41:12.278Z,66.93
2022-08-05T05:46:18.808Z,67.10
2022-08-05T05:51:25.757Z,67.41
2022-08-05T05:56:34.136Z,66.67
2022-08-05T06:01:39.833Z,66.97
2022-08-05T06:06:47.349Z,66.77
2022-08-05T06:12:01.002Z,67.00
2022-08-05T06:17:22.560Z,66.91
2022-08-05T06:22:29.686Z,66.97
2022-08-05T06:28:11.314Z,65.89
2022-08-05T06:32:54.153Z,65.10
2022-08-05T06:37:59.001Z,64.73
2022-08-05T06:43:02.870Z,65.83
2022-08-05T06:48:47.377Z,64.45
2022-08-05T06:53:28.639Z,63.47
2022-08-05T06:58:36.171Z,62.36
2022-08-05T07:03:38.521Z,61.13
2022-08-05T07:08:40.238Z,60.35
2022-08-05T07:14:02.790Z,59.66
2022-08-05T07:19:06.509Z,57.78
2022-08-05T07:24:11.466Z,57.57
2022-08-05T07:29:14.025Z,56.88
2022-08-05T07:34:16.133Z,56.67
2022-08-05T07:39:24.880Z,54.52
2022-08-05T07:44:46.319Z,54.59
2022-08-05T07:49:54.201Z,54.14
2022-08-05T07:54:57.306Z,52.83
2022-08-05T07:59:59.866Z,52.77
2022-08-05T08:05:01.756Z,52.39
2022-08-05T08:10:04.588Z,51.42
2022-08-05T08:15:15.217Z,51.64
2022-08-05T08:20:42.499Z,51.45
2022-08-05T08:26:00.870Z,50.93
2022-08-05T08:31:00.785Z,50.63
2022-08-05T08:36:18.731Z,50.53
2022-08-05T08:41:51.398Z,49.39
2022-08-05T08:46:51.350Z,49.27
2022-08-05T08:52:13.287Z,47.43
2022-08-05T08:57:15.915Z,46.92
2022-08-05T09:02:21.002Z,46.19
2022-08-05T09:07:28.821Z,44.94
2022-08-05T09:12:41.314Z,44.99
2022-08-05T09:17:49.324Z,44.88
2022-08-05T09:23:22.075Z,45.18
2022-08-05T09:28:32.078Z,46.04
2022-08-05T09:33:51.516Z,45.17
2022-08-05T09:38:57.297Z,44.62
2022-08-05T09:43:59.102Z,45.42
2022-08-05T09:49:19.365Z,46.26
2022-08-05T09:54:31.458Z,46.15
2022-08-05T09:59:34.785Z,46.33
2022-08-05T10:04:39.877Z,45.73
2022-08-05T10:10:04.042Z,45.81
2022-08-05T10:15:25.707Z,44.48
2022-08-05T10:20:33.495Z,45.62
2022-08-05T10:25:36.120Z,46.60
2022-08-05T10:32:53.760Z,47.31
2022-08-05T10:36:08.329Z,46.43
2022-08-05T10:41:46.908Z,46.66
2022-08-05T10:46:54.028Z,47.42
2022-08-05T10:52:02.595Z,47.62
2022-08-05T10:57:06.989Z,47.52
2022-08-05T11:02:14.811Z,46.09
2022-08-05T11:08:02.494Z,45.85
2022-08-05T11:13:01.167Z,45.93
2022-08-05T11:18:30.003Z,45.07
2022-08-05T11:24:02.712Z,43.93
2022-08-05T11:29:11.779Z,43.79
2022-08-05T11:34:17.204Z,44.16
2022-08-05T11:39:55.576Z,42.31
2022-08-05T11:45:23.166Z,41.66
2022-08-05T11:50:39.455Z,42.18
2022-08-05T11:56:02.177Z,42.12
2022-08-05T12:01:19.019Z,41.67
2022-08-05T12:06:25.147Z,41.27
2022-08-05T12:11:52.285Z,42.79
2022-08-05T12:16:54.035Z,42.98
2022-08-05T12:21:57.217Z,43.02
2022-08-05T12:27:09.464Z,42.69
2022-08-05T12:32:16.958Z,43.23
2022-08-05T12:37:21.839Z,42.84
2022-08-05T12:42:29.235Z,42.20
2022-08-05T12:47:32.270Z,42.51
2022-08-05T12:52:42.233Z,42.78
2022-08-05T12:58:38.513Z,42.86
2022-08-05T13:03:08.490Z,42.21
2022-08-05T13:08:18.663Z,42.12
2022-08-05T13:14:06.341Z,42.54
2022-08-05T13:18:55.260Z,43.75
2022-08-05T13:24:00.599Z,45.14
2022-08-05T13:29:06.245Z,45.23
2022-08-05T13:34:25.542Z,46.38
2022-08-05T13:40:15.038Z,47.59
2022-08-05T13:44:57.496Z,48.28
2022-08-05T13:50:04.578Z,47.58
2022-08-05T13:55:08.003Z,47.55
2022-08-05T14:00:11.889Z,47.26
2022-08-05T14:05:29.506Z,46.36
2022-08-05T14:10:37.528Z,45.49
2022-08-05T14:16:07.597Z,44.78
2022-08-05T14:21:01.131Z,44.54
2022-08-05T14:26:36.784Z,43.72
2022-08-05T14:32:03.859Z,42.96
2022-08-05T14:37:02.617Z,42.30
2022-08-05T14:42:21.359Z,42.32
2022-08-05T14:48:02.912Z,42.75
2022-08-05T14:52:57.544Z,41.91
2022-08-05T14:58:00.279Z,41.96
2022-08-05T15:03:02.068Z,41.74
2022-08-05T15:08:16.830Z,41.73
2022-08-05T15:13:44.915Z,40.43
2022-08-05T15:18:47.237Z,39.67
2022-08-05T15:23:49.415Z,38.35
2022-08-05T15:28:52.012Z,38.11
2022-08-05T15:34:19.541Z,36.59
2022-08-05T15:40:58.762Z,36.74
2022-08-05T15:44:43.755Z,37.17
2022-08-05T15:49:58.721Z,36.90
2022-08-05T15:55:08.162Z,36.00
2022-08-05T16:00:13.207Z,36.17
2022-08-05T16:05:18.792Z,36.45
2022-08-05T16:10:23.325Z,36.35
2022-08-05T16:15:32.265Z,36.02
2022-08-05T16:20:34.639Z,36.91
2022-08-05T16:25:37.152Z,37.65
2022-08-05T16:30:39.516Z,37.62
2022-08-05T16:35:44.653Z,37.23
2022-08-05T16:40:55.474Z,37.88
2022-08-05T16:46:23.528Z,37.55
2022-08-05T16:51:30.728Z,37.41
2022-08-05T16:56:44.505Z,38.00
2022-08-05T17:01:54.365Z,37.14
2022-08-05T17:07:01.487Z,36.67
2022-08-05T17:12:03.740Z,36.90
2022-08-05T17:17:15.090Z,37.23
2022-08-05T17:22:24.672Z,36.65
2022-08-05T17:27:33.318Z,36.39
2022-08-05T17:32:35.967Z,37.44
2022-08-05T17:37:41.942Z,36.82
2022-08-05T17:42:50.665Z,36.96
2022-08-05T17:47:56.191Z,36.98
2022-08-05T17:53:04.720Z,36.76
2022-08-05T17:58:11.192Z,37.68
2022-08-05T18:03:24.141Z,37.68
2022-08-05T18:08:37.247Z,38.42
2022-08-05T18:13:44.509Z,39.03
2022-08-05T18:18:47.782Z,39.02
2022-08-05T18:23:53.976Z,40.36
2022-08-05T18:29:01.862Z,40.10
2022-08-05T18:34:06.104Z,40.56
2022-08-05T18:39:42.435Z,41.01
2022-08-05T18:44:51.699Z,41.44
2022-08-05T18:50:16.136Z,42.28
2022-08-05T18:55:18.008Z,42.34
2022-08-05T19:00:21.057Z,42.96
2022-08-05T19:06:12.425Z,42.36
2022-08-05T19:10:52.470Z,42.44
2022-08-05T19:16:03.802Z,42.12
2022-08-05T19:21:05.873Z,41.04
2022-08-05T19:26:11.264Z,40.58
2022-08-05T19:31:19.312Z,41.17
2022-08-05T19:36:24.336Z,40.76
2022-08-05T19:41:58.185Z,41.13
2022-08-05T19:46:50.237Z,40.73
2022-08-05T19:52:13.189Z,41.36
2022-08-05T19:57:15.460Z,41.10
2022-08-05T20:02:20.429Z,42.04
2022-08-05T20:07:47.244Z,42.03
2022-08-05T20:12:45.921Z,41.63
2022-08-05T20:17:49.961Z,42.39
2022-08-05T20:22:52.289Z,42.78
2022-08-05T20:27:54.017Z,42.82
2022-08-05T20:32:59.350Z,43.18
2022-08-05T20:38:05.857Z,43.95
2022-08-05T20:43:10.693Z,43.98
2022-08-05T20:48:12.662Z,45.09
2022-08-05T20:53:36.749Z,45.03
2022-08-05T20:58:40.254Z,45.89
2022-08-05T21:03:48.075Z,45.65
2022-08-05T21:08:50.568Z,46.15
2022-08-05T21:13:56.410Z,46.70
2022-08-05T21:19:00.949Z,47.07
2022-08-05T21:24:04.492Z,46.91
2022-08-05T21:29:07.186Z,47.77
2022-08-05T21:34:11.910Z,48.93
2022-08-05T21:39:14.366Z,48.69
2022-08-05T21:44:18.959Z,48.32
2022-08-05T21:50:00.301Z,50.37
2022-08-05T21:54:51.287Z,50.04
2022-08-05T22:00:05.284Z,50.64
2022-08-05T22:05:09.312Z,50.76
2022-08-05T22:10:11.247Z,50.82
2022-08-05T22:15:16.640Z,52.08
2022-08-05T22:20:38.981Z,51.64
2022-08-05T22:26:09.821Z,52.07
2022-08-05T22:31:13.302Z,51.90
2022-08-05T22:36:17.281Z,52.38
2022-08-05T22:42:04.820Z,53.03
2022-08-05T22:46:42.124Z,53.14
2022-08-05T22:52:05.527Z,53.46
2022-08-05T22:57:08.726Z,53.81
2022-08-05T23:02:10.801Z,54.29
2022-08-05T23:07:12.620Z,54.51
2022-08-05T23:12:16.397Z,53.81
2022-08-05T23:17:34.492Z,54.71
2022-08-05T23:22:39.655Z,55.00
2022-08-05T23:27:42.399Z,55.40
2022-08-05T23:32:59.389Z,55.58
2022-08-05T23:38:01.923Z,55.69
2022-08-05T23:43:11.477Z,55.54
2022-08-05T23:48:25.332Z,55.62
2022-08-05T23:53:46.491Z,56.05
2022-08-05T23:58:48.665Z,56.83
